sensor_id;sensor_type;location;lat;lon;timestamp;P1;durP1;ratioP1;P2;durP2;ratioP2
13868;SDS011;7004;48.206;16.402;2024-03-25T00:02:03;1.53;;;1.43;;
13868;SDS011;7004;48.206;16.402;2024-03-25T00:04:30;2.07;;;1.27;;
13868;SDS011;7004;48.206;16.402;2024-03-25T00:06:56;1.43;;;1.33;;
13868;SDS011;7004;48.206;16.402;2024-03-25T00:09:23;2.17;;;1.40;;
13868;SDS011;7004;48.206;16.402;2024-03-25T00:11:50;2.70;;;1.30;;
13868;SDS011;7004;48.206;16.402;2024-03-25T00:14:20;2.10;;;1.37;;
13868;SDS011;7004;48.206;16.402;2024-03-25T00:16:47;1.57;;;1.27;;
13868;SDS011;7004;48.206;16.402;2024-03-25T00:19:13;1.63;;;1.20;;
13868;SDS011;7004;48.206;16.402;2024-03-25T00:21:40;2.10;;;1.40;;
13868;SDS011;7004;48.206;16.402;2024-03-25T00:24:07;1.30;;;1.20;;
13868;SDS011;7004;48.206;16.402;2024-03-25T00:26:33;1.70;;;1.23;;
13868;SDS011;7004;48.206;16.402;2024-03-25T00:29:00;1.53;;;1.40;;
13868;SDS011;7004;48.206;16.402;2024-03-25T00:31:26;1.83;;;1.40;;
13868;SDS011;7004;48.206;16.402;2024-03-25T00:33:52;2.93;;;1.50;;
13868;SDS011;7004;48.206;16.402;2024-03-25T00:36:19;1.30;;;1.20;;
13868;SDS011;7004;48.206;16.402;2024-03-25T00:38:45;3.00;;;1.30;;
13868;SDS011;7004;48.206;16.402;2024-03-25T00:41:11;1.60;;;1.50;;
13868;SDS011;7004;48.206;16.402;2024-03-25T00:43:37;1.67;;;1.30;;
13868;SDS011;7004;48.206;16.402;2024-03-25T00:46:03;1.37;;;1.27;;
13868;SDS011;7004;48.206;16.402;2024-03-25T00:48:29;1.80;;;1.23;;
13868;SDS011;7004;48.206;16.402;2024-03-25T00:50:55;1.17;;;1.10;;
13868;SDS011;7004;48.206;16.402;2024-03-25T00:53:21;2.10;;;1.50;;
13868;SDS011;7004;48.206;16.402;2024-03-25T00:55:48;1.40;;;1.30;;
13868;SDS011;7004;48.206;16.402;2024-03-25T00:58:13;2.80;;;1.60;;
13868;SDS011;7004;48.206;16.402;2024-03-25T01:00:40;2.27;;;1.40;;
13868;SDS011;7004;48.206;16.402;2024-03-25T01:03:06;2.80;;;1.50;;
13868;SDS011;7004;48.206;16.402;2024-03-25T01:05:33;1.27;;;1.20;;
13868;SDS011;7004;48.206;16.402;2024-03-25T01:07:59;1.83;;;1.40;;
13868;SDS011;7004;48.206;16.402;2024-03-25T01:10:25;1.83;;;1.60;;
13868;SDS011;7004;48.206;16.402;2024-03-25T01:12:53;1.53;;;1.43;;
13868;SDS011;7004;48.206;16.402;2024-03-25T01:15:19;3.07;;;1.80;;
13868;SDS011;7004;48.206;16.402;2024-03-25T01:17:45;1.60;;;1.40;;
13868;SDS011;7004;48.206;16.402;2024-03-25T01:20:11;1.70;;;1.60;;
13868;SDS011;7004;48.206;16.402;2024-03-25T01:22:37;2.30;;;1.60;;
13868;SDS011;7004;48.206;16.402;2024-03-25T01:25:04;2.03;;;1.60;;
13868;SDS011;7004;48.206;16.402;2024-03-25T01:27:32;1.67;;;1.50;;
13868;SDS011;7004;48.206;16.402;2024-03-25T01:29:58;1.50;;;1.40;;
13868;SDS011;7004;48.206;16.402;2024-03-25T01:32:24;2.87;;;1.70;;
13868;SDS011;7004;48.206;16.402;2024-03-25T01:34:50;1.80;;;1.70;;
13868;SDS011;7004;48.206;16.402;2024-03-25T01:37:16;2.17;;;1.60;;
13868;SDS011;7004;48.206;16.402;2024-03-25T01:39:43;3.37;;;1.87;;
13868;SDS011;7004;48.206;16.402;2024-03-25T01:42:10;2.00;;;1.60;;
13868;SDS011;7004;48.206;16.402;2024-03-25T01:44:36;2.47;;;1.80;;
13868;SDS011;7004;48.206;16.402;2024-03-25T01:47:03;2.37;;;1.80;;
13868;SDS011;7004;48.206;16.402;2024-03-25T01:49:29;2.00;;;1.80;;
13868;SDS011;7004;48.206;16.402;2024-03-25T01:51:55;3.47;;;1.70;;
13868;SDS011;7004;48.206;16.402;2024-03-25T01:54:23;2.10;;;1.70;;
13868;SDS011;7004;48.206;16.402;2024-03-25T01:56:49;2.03;;;1.83;;
13868;SDS011;7004;48.206;16.402;2024-03-25T01:59:15;2.03;;;1.80;;
13868;SDS011;7004;48.206;16.402;2024-03-25T02:01:43;1.53;;;1.40;;
13868;SDS011;7004;48.206;16.402;2024-03-25T02:04:11;2.50;;;1.90;;
13868;SDS011;7004;48.206;16.402;2024-03-25T02:06:37;2.10;;;1.60;;
13868;SDS011;7004;48.206;16.402;2024-03-25T02:09:06;1.70;;;1.53;;
13868;SDS011;7004;48.206;16.402;2024-03-25T02:11:35;1.80;;;1.50;;
13868;SDS011;7004;48.206;16.402;2024-03-25T02:14:02;1.30;;;1.20;;
13868;SDS011;7004;48.206;16.402;2024-03-25T02:16:28;1.40;;;1.30;;
13868;SDS011;7004;48.206;16.402;2024-03-25T02:18:54;1.70;;;1.27;;
13868;SDS011;7004;48.206;16.402;2024-03-25T02:21:20;1.77;;;1.43;;
13868;SDS011;7004;48.206;16.402;2024-03-25T02:23:46;1.40;;;1.30;;
13868;SDS011;7004;48.206;16.402;2024-03-25T02:26:15;1.47;;;1.30;;
13868;SDS011;7004;48.206;16.402;2024-03-25T02:28:41;1.57;;;1.47;;
13868;SDS011;7004;48.206;16.402;2024-03-25T02:31:07;1.33;;;1.20;;
13868;SDS011;7004;48.206;16.402;2024-03-25T02:33:33;1.40;;;1.30;;
13868;SDS011;7004;48.206;16.402;2024-03-25T02:35:59;1.53;;;1.40;;
13868;SDS011;7004;48.206;16.402;2024-03-25T02:38:25;1.93;;;1.70;;
13868;SDS011;7004;48.206;16.402;2024-03-25T02:40:52;1.60;;;1.50;;
13868;SDS011;7004;48.206;16.402;2024-03-25T02:43:18;2.10;;;1.50;;
13868;SDS011;7004;48.206;16.402;2024-03-25T02:45:46;1.97;;;1.80;;
13868;SDS011;7004;48.206;16.402;2024-03-25T02:48:13;2.10;;;1.90;;
13868;SDS011;7004;48.206;16.402;2024-03-25T02:50:39;2.00;;;1.87;;
13868;SDS011;7004;48.206;16.402;2024-03-25T02:53:05;2.90;;;1.90;;
13868;SDS011;7004;48.206;16.402;2024-03-25T02:55:31;2.07;;;1.80;;
13868;SDS011;7004;48.206;16.402;2024-03-25T02:57:57;2.20;;;1.97;;
13868;SDS011;7004;48.206;16.402;2024-03-25T03:00:24;2.00;;;1.90;;
13868;SDS011;7004;48.206;16.402;2024-03-25T03:02:50;2.90;;;1.90;;
13868;SDS011;7004;48.206;16.402;2024-03-25T03:05:16;2.57;;;1.80;;
13868;SDS011;7004;48.206;16.402;2024-03-25T03:07:42;2.13;;;1.93;;
13868;SDS011;7004;48.206;16.402;2024-03-25T03:10:08;2.23;;;2.00;;
13868;SDS011;7004;48.206;16.402;2024-03-25T03:12:34;2.80;;;2.37;;
13868;SDS011;7004;48.206;16.402;2024-03-25T03:15:02;3.73;;;2.23;;
13868;SDS011;7004;48.206;16.402;2024-03-25T03:17:29;2.73;;;2.03;;
13868;SDS011;7004;48.206;16.402;2024-03-25T03:19:55;4.10;;;2.77;;
13868;SDS011;7004;48.206;16.402;2024-03-25T03:22:21;2.60;;;2.23;;
13868;SDS011;7004;48.206;16.402;2024-03-25T03:24:48;2.60;;;2.30;;
13868;SDS011;7004;48.206;16.402;2024-03-25T03:27:14;3.13;;;2.47;;
13868;SDS011;7004;48.206;16.402;2024-03-25T03:29:40;4.90;;;2.60;;
13868;SDS011;7004;48.206;16.402;2024-03-25T03:32:06;5.80;;;2.57;;
13868;SDS011;7004;48.206;16.402;2024-03-25T03:34:33;2.50;;;2.30;;
13868;SDS011;7004;48.206;16.402;2024-03-25T03:36:59;2.50;;;2.17;;
13868;SDS011;7004;48.206;16.402;2024-03-25T03:39:26;2.50;;;2.30;;
13868;SDS011;7004;48.206;16.402;2024-03-25T03:41:52;3.10;;;2.40;;
13868;SDS011;7004;48.206;16.402;2024-03-25T03:44:18;2.97;;;2.23;;
13868;SDS011;7004;48.206;16.402;2024-03-25T03:46:44;3.67;;;2.43;;
13868;SDS011;7004;48.206;16.402;2024-03-25T03:49:10;2.97;;;2.13;;
13868;SDS011;7004;48.206;16.402;2024-03-25T03:51:36;3.30;;;2.43;;
13868;SDS011;7004;48.206;16.402;2024-03-25T03:54:03;2.33;;;2.13;;
13868;SDS011;7004;48.206;16.402;2024-03-25T03:56:29;2.20;;;2.00;;
13868;SDS011;7004;48.206;16.402;2024-03-25T03:58:55;3.50;;;2.20;;
13868;SDS011;7004;48.206;16.402;2024-03-25T04:01:20;2.57;;;2.30;;
13868;SDS011;7004;48.206;16.402;2024-03-25T04:03:47;3.13;;;2.33;;
13868;SDS011;7004;48.206;16.402;2024-03-25T04:06:13;3.90;;;2.33;;
13868;SDS011;7004;48.206;16.402;2024-03-25T04:08:40;2.43;;;2.17;;
13868;SDS011;7004;48.206;16.402;2024-03-25T04:11:06;3.93;;;2.40;;
13868;SDS011;7004;48.206;16.402;2024-03-25T04:13:34;2.33;;;2.13;;
13868;SDS011;7004;48.206;16.402;2024-03-25T04:16:01;3.73;;;2.57;;
13868;SDS011;7004;48.206;16.402;2024-03-25T04:18:30;2.73;;;2.20;;
13868;SDS011;7004;48.206;16.402;2024-03-25T04:20:58;2.50;;;2.27;;
13868;SDS011;7004;48.206;16.402;2024-03-25T04:23:25;5.33;;;2.50;;
13868;SDS011;7004;48.206;16.402;2024-03-25T04:25:51;3.17;;;2.37;;
13868;SDS011;7004;48.206;16.402;2024-03-25T04:28:18;2.93;;;2.60;;
13868;SDS011;7004;48.206;16.402;2024-03-25T04:30:52;2.57;;;2.37;;
13868;SDS011;7004;48.206;16.402;2024-03-25T04:33:18;3.97;;;2.43;;
13868;SDS011;7004;48.206;16.402;2024-03-25T04:35:45;4.80;;;2.50;;
13868;SDS011;7004;48.206;16.402;2024-03-25T04:38:12;3.07;;;2.40;;
13868;SDS011;7004;48.206;16.402;2024-03-25T04:40:41;3.87;;;2.80;;
13868;SDS011;7004;48.206;16.402;2024-03-25T04:43:09;2.97;;;2.60;;
13868;SDS011;7004;48.206;16.402;2024-03-25T04:45:35;3.10;;;2.70;;
13868;SDS011;7004;48.206;16.402;2024-03-25T04:48:01;2.77;;;2.40;;
13868;SDS011;7004;48.206;16.402;2024-03-25T04:50:27;3.07;;;2.57;;
13868;SDS011;7004;48.206;16.402;2024-03-25T04:52:53;5.07;;;2.80;;
13868;SDS011;7004;48.206;16.402;2024-03-25T04:55:19;4.03;;;2.50;;
13868;SDS011;7004;48.206;16.402;2024-03-25T04:57:45;2.87;;;2.57;;
13868;SDS011;7004;48.206;16.402;2024-03-25T05:00:11;5.00;;;2.80;;
13868;SDS011;7004;48.206;16.402;2024-03-25T05:02:38;4.47;;;2.70;;
13868;SDS011;7004;48.206;16.402;2024-03-25T05:05:04;3.00;;;2.70;;
13868;SDS011;7004;48.206;16.402;2024-03-25T05:07:32;3.03;;;2.73;;
13868;SDS011;7004;48.206;16.402;2024-03-25T05:09:59;2.80;;;2.43;;
13868;SDS011;7004;48.206;16.402;2024-03-25T05:12:25;4.67;;;2.73;;
13868;SDS011;7004;48.206;16.402;2024-03-25T05:14:55;4.93;;;2.60;;
13868;SDS011;7004;48.206;16.402;2024-03-25T05:17:22;3.57;;;2.60;;
13868;SDS011;7004;48.206;16.402;2024-03-25T05:19:48;3.10;;;2.50;;
13868;SDS011;7004;48.206;16.402;2024-03-25T05:22:14;3.20;;;2.47;;
13868;SDS011;7004;48.206;16.402;2024-03-25T05:24:41;3.37;;;2.23;;
13868;SDS011;7004;48.206;16.402;2024-03-25T05:27:07;2.70;;;2.50;;
13868;SDS011;7004;48.206;16.402;2024-03-25T05:29:33;2.50;;;2.30;;
13868;SDS011;7004;48.206;16.402;2024-03-25T05:32:00;3.23;;;2.63;;
13868;SDS011;7004;48.206;16.402;2024-03-25T05:34:27;4.03;;;2.70;;
13868;SDS011;7004;48.206;16.402;2024-03-25T05:36:54;3.23;;;2.60;;
13868;SDS011;7004;48.206;16.402;2024-03-25T05:39:20;4.13;;;2.40;;
13868;SDS011;7004;48.206;16.402;2024-03-25T05:41:47;6.67;;;2.80;;
13868;SDS011;7004;48.206;16.402;2024-03-25T05:44:13;5.33;;;2.77;;
13868;SDS011;7004;48.206;16.402;2024-03-25T05:46:40;3.27;;;2.60;;
13868;SDS011;7004;48.206;16.402;2024-03-25T05:49:06;3.80;;;2.53;;
13868;SDS011;7004;48.206;16.402;2024-03-25T05:51:32;4.93;;;2.87;;
13868;SDS011;7004;48.206;16.402;2024-03-25T05:53:59;5.03;;;2.70;;
13868;SDS011;7004;48.206;16.402;2024-03-25T05:56:25;5.73;;;2.63;;
13868;SDS011;7004;48.206;16.402;2024-03-25T05:58:58;4.43;;;2.70;;
13868;SDS011;7004;48.206;16.402;2024-03-25T06:01:25;3.90;;;2.60;;
13868;SDS011;7004;48.206;16.402;2024-03-25T06:03:52;4.37;;;2.53;;
13868;SDS011;7004;48.206;16.402;2024-03-25T06:06:18;4.33;;;2.70;;
13868;SDS011;7004;48.206;16.402;2024-03-25T06:08:45;5.13;;;2.70;;
13868;SDS011;7004;48.206;16.402;2024-03-25T06:11:11;4.60;;;2.73;;
13868;SDS011;7004;48.206;16.402;2024-03-25T06:13:37;3.17;;;2.73;;
13868;SDS011;7004;48.206;16.402;2024-03-25T06:16:04;4.37;;;2.40;;
13868;SDS011;7004;48.206;16.402;2024-03-25T06:18:30;3.93;;;3.03;;
13868;SDS011;7004;48.206;16.402;2024-03-25T06:20:56;4.07;;;2.63;;
13868;SDS011;7004;48.206;16.402;2024-03-25T06:23:23;2.63;;;2.40;;
13868;SDS011;7004;48.206;16.402;2024-03-25T06:25:51;5.23;;;2.60;;
13868;SDS011;7004;48.206;16.402;2024-03-25T06:28:19;2.90;;;2.60;;
13868;SDS011;7004;48.206;16.402;2024-03-25T06:30:46;4.40;;;2.83;;
13868;SDS011;7004;48.206;16.402;2024-03-25T06:33:32;6.67;;;3.23;;
13868;SDS011;7004;48.206;16.402;2024-03-25T06:36:17;3.37;;;2.70;;
13868;SDS011;7004;48.206;16.402;2024-03-25T06:38:44;3.10;;;2.80;;
13868;SDS011;7004;48.206;16.402;2024-03-25T06:41:10;6.23;;;3.60;;
13868;SDS011;7004;48.206;16.402;2024-03-25T06:43:36;7.63;;;2.83;;
13868;SDS011;7004;48.206;16.402;2024-03-25T06:46:03;5.80;;;3.30;;
13868;SDS011;7004;48.206;16.402;2024-03-25T06:48:31;3.53;;;2.70;;
13868;SDS011;7004;48.206;16.402;2024-03-25T06:51:00;3.73;;;2.63;;
13868;SDS011;7004;48.206;16.402;2024-03-25T06:53:28;4.50;;;2.97;;
13868;SDS011;7004;48.206;16.402;2024-03-25T06:55:55;6.90;;;2.73;;
13868;SDS011;7004;48.206;16.402;2024-03-25T06:58:25;4.53;;;3.10;;
13868;SDS011;7004;48.206;16.402;2024-03-25T07:00:53;6.27;;;2.80;;
13868;SDS011;7004;48.206;16.402;2024-03-25T07:03:21;3.33;;;2.60;;
13868;SDS011;7004;48.206;16.402;2024-03-25T07:05:49;3.00;;;2.70;;
13868;SDS011;7004;48.206;16.402;2024-03-25T07:08:24;3.67;;;2.70;;
13868;SDS011;7004;48.206;16.402;2024-03-25T07:10:50;5.97;;;3.00;;
13868;SDS011;7004;48.206;16.402;2024-03-25T07:13:17;3.73;;;2.83;;
13868;SDS011;7004;48.206;16.402;2024-03-25T07:15:44;3.30;;;2.60;;
13868;SDS011;7004;48.206;16.402;2024-03-25T07:18:11;3.13;;;2.63;;
13868;SDS011;7004;48.206;16.402;2024-03-25T07:20:42;3.83;;;2.73;;
13868;SDS011;7004;48.206;16.402;2024-03-25T07:23:10;2.50;;;2.30;;
13868;SDS011;7004;48.206;16.402;2024-03-25T07:25:36;4.67;;;2.80;;
13868;SDS011;7004;48.206;16.402;2024-03-25T07:28:03;4.90;;;2.73;;
13868;SDS011;7004;48.206;16.402;2024-03-25T07:30:30;6.60;;;3.17;;
13868;SDS011;7004;48.206;16.402;2024-03-25T07:32:57;3.23;;;2.23;;
13868;SDS011;7004;48.206;16.402;2024-03-25T07:35:24;4.40;;;2.80;;
13868;SDS011;7004;48.206;16.402;2024-03-25T07:37:50;4.70;;;2.57;;
13868;SDS011;7004;48.206;16.402;2024-03-25T07:40:17;4.80;;;2.70;;
13868;SDS011;7004;48.206;16.402;2024-03-25T07:42:44;2.67;;;2.23;;
13868;SDS011;7004;48.206;16.402;2024-03-25T07:45:11;4.07;;;2.47;;
13868;SDS011;7004;48.206;16.402;2024-03-25T07:47:37;6.33;;;2.50;;
13868;SDS011;7004;48.206;16.402;2024-03-25T07:50:04;5.93;;;2.37;;
13868;SDS011;7004;48.206;16.402;2024-03-25T07:52:34;4.27;;;2.53;;
13868;SDS011;7004;48.206;16.402;2024-03-25T07:55:06;3.10;;;2.37;;
13868;SDS011;7004;48.206;16.402;2024-03-25T07:57:33;4.17;;;2.10;;
13868;SDS011;7004;48.206;16.402;2024-03-25T07:59:59;2.40;;;2.20;;
13868;SDS011;7004;48.206;16.402;2024-03-25T08:02:25;2.70;;;2.30;;
13868;SDS011;7004;48.206;16.402;2024-03-25T08:04:51;3.30;;;2.23;;
13868;SDS011;7004;48.206;16.402;2024-03-25T08:07:17;3.83;;;2.50;;
13868;SDS011;7004;48.206;16.402;2024-03-25T08:09:43;3.60;;;2.10;;
13868;SDS011;7004;48.206;16.402;2024-03-25T08:12:09;2.83;;;2.10;;
13868;SDS011;7004;48.206;16.402;2024-03-25T08:14:35;2.73;;;2.03;;
13868;SDS011;7004;48.206;16.402;2024-03-25T08:17:01;2.53;;;2.30;;
13868;SDS011;7004;48.206;16.402;2024-03-25T08:19:29;4.53;;;2.20;;
13868;SDS011;7004;48.206;16.402;2024-03-25T08:21:57;3.73;;;2.17;;
13868;SDS011;7004;48.206;16.402;2024-03-25T08:24:23;2.63;;;1.97;;
13868;SDS011;7004;48.206;16.402;2024-03-25T08:26:49;3.57;;;2.30;;
13868;SDS011;7004;48.206;16.402;2024-03-25T08:29:15;2.27;;;2.07;;
13868;SDS011;7004;48.206;16.402;2024-03-25T08:31:41;5.87;;;2.40;;
13868;SDS011;7004;48.206;16.402;2024-03-25T08:34:07;2.97;;;2.00;;
13868;SDS011;7004;48.206;16.402;2024-03-25T08:36:33;3.90;;;2.30;;
13868;SDS011;7004;48.206;16.402;2024-03-25T08:38:59;2.20;;;2.00;;
13868;SDS011;7004;48.206;16.402;2024-03-25T08:41:26;2.20;;;2.00;;
13868;SDS011;7004;48.206;16.402;2024-03-25T08:43:52;5.13;;;2.30;;
13868;SDS011;7004;48.206;16.402;2024-03-25T08:46:18;2.70;;;1.90;;
13868;SDS011;7004;48.206;16.402;2024-03-25T08:48:44;3.93;;;2.17;;
13868;SDS011;7004;48.206;16.402;2024-03-25T08:51:10;2.93;;;2.00;;
13868;SDS011;7004;48.206;16.402;2024-03-25T08:53:36;3.33;;;2.40;;
13868;SDS011;7004;48.206;16.402;2024-03-25T08:56:03;7.77;;;2.30;;
13868;SDS011;7004;48.206;16.402;2024-03-25T08:58:30;2.17;;;2.00;;
13868;SDS011;7004;48.206;16.402;2024-03-25T09:00:56;4.37;;;2.30;;
13868;SDS011;7004;48.206;16.402;2024-03-25T09:03:22;2.20;;;2.00;;
13868;SDS011;7004;48.206;16.402;2024-03-25T09:05:48;2.80;;;1.70;;
13868;SDS011;7004;48.206;16.402;2024-03-25T09:08:14;2.77;;;2.10;;
13868;SDS011;7004;48.206;16.402;2024-03-25T09:10:43;2.50;;;1.90;;
13868;SDS011;7004;48.206;16.402;2024-03-25T09:13:28;2.17;;;1.83;;
13868;SDS011;7004;48.206;16.402;2024-03-25T09:15:56;3.27;;;2.17;;
13868;SDS011;7004;48.206;16.402;2024-03-25T09:18:22;3.53;;;2.20;;
13868;SDS011;7004;48.206;16.402;2024-03-25T09:20:49;5.90;;;1.93;;
13868;SDS011;7004;48.206;16.402;2024-03-25T09:23:15;2.70;;;1.93;;
13868;SDS011;7004;48.206;16.402;2024-03-25T09:25:52;2.30;;;2.07;;
13868;SDS011;7004;48.206;16.402;2024-03-25T09:28:19;2.60;;;1.90;;
13868;SDS011;7004;48.206;16.402;2024-03-25T09:30:45;2.30;;;2.10;;
13868;SDS011;7004;48.206;16.402;2024-03-25T09:33:14;3.30;;;2.13;;
13868;SDS011;7004;48.206;16.402;2024-03-25T09:35:40;3.43;;;1.90;;
13868;SDS011;7004;48.206;16.402;2024-03-25T09:38:06;2.33;;;2.00;;
13868;SDS011;7004;48.206;16.402;2024-03-25T09:40:35;6.20;;;1.90;;
13868;SDS011;7004;48.206;16.402;2024-03-25T09:43:04;2.13;;;1.93;;
13868;SDS011;7004;48.206;16.402;2024-03-25T09:45:47;4.33;;;1.90;;
13868;SDS011;7004;48.206;16.402;2024-03-25T09:48:14;2.93;;;2.10;;
13868;SDS011;7004;48.206;16.402;2024-03-25T09:50:44;11.57;;;4.47;;
13868;SDS011;7004;48.206;16.402;2024-03-25T09:53:10;6.27;;;3.70;;
13868;SDS011;7004;48.206;16.402;2024-03-25T09:55:37;2.77;;;2.10;;
13868;SDS011;7004;48.206;16.402;2024-03-25T09:58:03;2.67;;;2.00;;
13868;SDS011;7004;48.206;16.402;2024-03-25T10:00:30;1.93;;;1.73;;
13868;SDS011;7004;48.206;16.402;2024-03-25T10:02:56;2.87;;;2.00;;
13868;SDS011;7004;48.206;16.402;2024-03-25T10:05:22;4.30;;;1.90;;
13868;SDS011;7004;48.206;16.402;2024-03-25T10:07:49;3.17;;;2.03;;
13868;SDS011;7004;48.206;16.402;2024-03-25T10:10:19;2.60;;;1.93;;
13868;SDS011;7004;48.206;16.402;2024-03-25T10:12:45;1.50;;;1.40;;
13868;SDS011;7004;48.206;16.402;2024-03-25T10:15:15;2.73;;;1.83;;
13868;SDS011;7004;48.206;16.402;2024-03-25T10:17:42;2.27;;;1.70;;
13868;SDS011;7004;48.206;16.402;2024-03-25T10:20:16;1.90;;;1.67;;
13868;SDS011;7004;48.206;16.402;2024-03-25T10:22:45;2.97;;;1.57;;
13868;SDS011;7004;48.206;16.402;2024-03-25T10:25:27;2.07;;;1.67;;
13868;SDS011;7004;48.206;16.402;2024-03-25T10:27:59;1.90;;;1.60;;
13868;SDS011;7004;48.206;16.402;2024-03-25T10:30:26;2.60;;;1.83;;
13868;SDS011;7004;48.206;16.402;2024-03-25T10:33:00;2.03;;;1.50;;
13868;SDS011;7004;48.206;16.402;2024-03-25T10:35:29;2.60;;;1.50;;
13868;SDS011;7004;48.206;16.402;2024-03-25T10:38:00;1.93;;;1.57;;
13868;SDS011;7004;48.206;16.402;2024-03-25T10:40:34;2.07;;;1.40;;
13868;SDS011;7004;48.206;16.402;2024-03-25T10:43:08;2.30;;;1.83;;
13868;SDS011;7004;48.206;16.402;2024-03-25T10:45:47;2.20;;;1.80;;
13868;SDS011;7004;48.206;16.402;2024-03-25T10:48:15;2.53;;;1.90;;
13868;SDS011;7004;48.206;16.402;2024-03-25T10:51:05;4.80;;;1.90;;
13868;SDS011;7004;48.206;16.402;2024-03-25T10:53:34;3.10;;;1.60;;
13868;SDS011;7004;48.206;16.402;2024-03-25T10:56:01;1.70;;;1.60;;
13868;SDS011;7004;48.206;16.402;2024-03-25T10:58:30;1.87;;;1.60;;
13868;SDS011;7004;48.206;16.402;2024-03-25T11:00:58;3.63;;;1.80;;
13868;SDS011;7004;48.206;16.402;2024-03-25T11:03:25;2.20;;;1.77;;
13868;SDS011;7004;48.206;16.402;2024-03-25T11:05:52;1.87;;;1.77;;
13868;SDS011;7004;48.206;16.402;2024-03-25T11:08:18;3.30;;;1.50;;
13868;SDS011;7004;48.206;16.402;2024-03-25T11:10:47;4.07;;;2.00;;
13868;SDS011;7004;48.206;16.402;2024-03-25T11:13:18;3.00;;;2.10;;
13868;SDS011;7004;48.206;16.402;2024-03-25T11:15:45;2.20;;;1.80;;
13868;SDS011;7004;48.206;16.402;2024-03-25T11:18:14;1.77;;;1.60;;
13868;SDS011;7004;48.206;16.402;2024-03-25T11:20:42;2.40;;;1.97;;
13868;SDS011;7004;48.206;16.402;2024-03-25T11:23:12;2.73;;;1.90;;
13868;SDS011;7004;48.206;16.402;2024-03-25T11:25:39;2.23;;;1.90;;
13868;SDS011;7004;48.206;16.402;2024-03-25T11:28:08;2.07;;;1.87;;
13868;SDS011;7004;48.206;16.402;2024-03-25T11:30:36;3.10;;;1.90;;
13868;SDS011;7004;48.206;16.402;2024-03-25T11:33:02;2.23;;;2.00;;
13868;SDS011;7004;48.206;16.402;2024-03-25T11:35:30;3.73;;;2.00;;
13868;SDS011;7004;48.206;16.402;2024-03-25T11:38:02;2.00;;;1.80;;
13868;SDS011;7004;48.206;16.402;2024-03-25T11:40:28;2.40;;;1.70;;
13868;SDS011;7004;48.206;16.402;2024-03-25T11:42:54;1.87;;;1.70;;
13868;SDS011;7004;48.206;16.402;2024-03-25T11:45:21;1.93;;;1.57;;
13868;SDS011;7004;48.206;16.402;2024-03-25T11:47:49;1.70;;;1.57;;
13868;SDS011;7004;48.206;16.402;2024-03-25T11:50:18;3.07;;;1.53;;
13868;SDS011;7004;48.206;16.402;2024-03-25T11:52:45;2.87;;;1.80;;
13868;SDS011;7004;48.206;16.402;2024-03-25T11:55:16;1.60;;;1.50;;
13868;SDS011;7004;48.206;16.402;2024-03-25T11:57:42;5.27;;;1.70;;
13868;SDS011;7004;48.206;16.402;2024-03-25T12:00:09;1.70;;;1.60;;
13868;SDS011;7004;48.206;16.402;2024-03-25T12:02:42;2.67;;;2.00;;
13868;SDS011;7004;48.206;16.402;2024-03-25T12:05:10;2.17;;;1.70;;
13868;SDS011;7004;48.206;16.402;2024-03-25T12:07:37;3.10;;;1.70;;
13868;SDS011;7004;48.206;16.402;2024-03-25T12:10:04;2.53;;;1.70;;
13868;SDS011;7004;48.206;16.402;2024-03-25T12:12:49;4.17;;;2.10;;
13868;SDS011;7004;48.206;16.402;2024-03-25T12:15:19;2.67;;;1.70;;
13868;SDS011;7004;48.206;16.402;2024-03-25T12:17:45;1.80;;;1.57;;
13868;SDS011;7004;48.206;16.402;2024-03-25T12:20:12;3.63;;;1.80;;
13868;SDS011;7004;48.206;16.402;2024-03-25T12:22:38;2.67;;;1.53;;
13868;SDS011;7004;48.206;16.402;2024-03-25T12:25:06;2.50;;;1.83;;
13868;SDS011;7004;48.206;16.402;2024-03-25T12:27:35;2.57;;;2.10;;
13868;SDS011;7004;48.206;16.402;2024-03-25T12:30:07;1.93;;;1.60;;
13868;SDS011;7004;48.206;16.402;2024-03-25T12:37:39;3.17;;;2.00;;
13868;SDS011;7004;48.206;16.402;2024-03-25T12:40:09;2.70;;;1.87;;
13868;SDS011;7004;48.206;16.402;2024-03-25T12:42:37;2.13;;;1.77;;
13868;SDS011;7004;48.206;16.402;2024-03-25T12:45:06;2.80;;;1.83;;
13868;SDS011;7004;48.206;16.402;2024-03-25T12:47:34;4.23;;;1.60;;
13868;SDS011;7004;48.206;16.402;2024-03-25T12:50:00;2.30;;;1.53;;
13868;SDS011;7004;48.206;16.402;2024-03-25T12:52:26;2.33;;;1.53;;
13868;SDS011;7004;48.206;16.402;2024-03-25T12:54:53;3.90;;;1.87;;
13868;SDS011;7004;48.206;16.402;2024-03-25T12:57:19;1.97;;;1.70;;
13868;SDS011;7004;48.206;16.402;2024-03-25T12:59:45;3.80;;;2.20;;
13868;SDS011;7004;48.206;16.402;2024-03-25T13:02:12;2.90;;;1.80;;
13868;SDS011;7004;48.206;16.402;2024-03-25T13:04:39;2.87;;;2.07;;
13868;SDS011;7004;48.206;16.402;2024-03-25T13:07:08;3.33;;;2.33;;
13868;SDS011;7004;48.206;16.402;2024-03-25T13:09:34;1.97;;;1.70;;
13868;SDS011;7004;48.206;16.402;2024-03-25T13:12:00;2.77;;;2.17;;
13868;SDS011;7004;48.206;16.402;2024-03-25T13:14:26;2.90;;;2.30;;
13868;SDS011;7004;48.206;16.402;2024-03-25T13:16:52;2.10;;;1.80;;
13868;SDS011;7004;48.206;16.402;2024-03-25T13:19:18;2.67;;;1.80;;
13868;SDS011;7004;48.206;16.402;2024-03-25T13:21:44;3.60;;;2.00;;
13868;SDS011;7004;48.206;16.402;2024-03-25T13:24:29;6.20;;;2.20;;
13868;SDS011;7004;48.206;16.402;2024-03-25T13:26:55;2.30;;;2.00;;
13868;SDS011;7004;48.206;16.402;2024-03-25T13:29:21;1.80;;;1.67;;
13868;SDS011;7004;48.206;16.402;2024-03-25T13:31:47;5.07;;;1.63;;
13868;SDS011;7004;48.206;16.402;2024-03-25T13:34:13;2.07;;;1.70;;
13868;SDS011;7004;48.206;16.402;2024-03-25T13:36:40;3.63;;;2.27;;
13868;SDS011;7004;48.206;16.402;2024-03-25T13:39:07;2.60;;;1.80;;
13868;SDS011;7004;48.206;16.402;2024-03-25T13:41:34;3.33;;;1.90;;
13868;SDS011;7004;48.206;16.402;2024-03-25T13:44:02;1.93;;;1.73;;
13868;SDS011;7004;48.206;16.402;2024-03-25T13:46:29;3.73;;;2.20;;
13868;SDS011;7004;48.206;16.402;2024-03-25T13:48:56;4.37;;;1.97;;
13868;SDS011;7004;48.206;16.402;2024-03-25T13:51:22;3.00;;;2.00;;
13868;SDS011;7004;48.206;16.402;2024-03-25T13:53:48;3.20;;;2.00;;
13868;SDS011;7004;48.206;16.402;2024-03-25T13:56:15;2.80;;;2.00;;
13868;SDS011;7004;48.206;16.402;2024-03-25T13:58:41;2.87;;;2.00;;
13868;SDS011;7004;48.206;16.402;2024-03-25T14:01:07;2.43;;;2.17;;
13868;SDS011;7004;48.206;16.402;2024-03-25T14:03:34;3.47;;;2.20;;
13868;SDS011;7004;48.206;16.402;2024-03-25T14:06:02;2.60;;;1.97;;
13868;SDS011;7004;48.206;16.402;2024-03-25T14:08:29;3.77;;;2.20;;
13868;SDS011;7004;48.206;16.402;2024-03-25T14:10:59;2.43;;;2.03;;
13868;SDS011;7004;48.206;16.402;2024-03-25T14:13:27;2.60;;;1.80;;
13868;SDS011;7004;48.206;16.402;2024-03-25T14:15:54;3.07;;;1.70;;
13868;SDS011;7004;48.206;16.402;2024-03-25T14:18:20;2.63;;;1.67;;
13868;SDS011;7004;48.206;16.402;2024-03-25T14:20:46;2.53;;;2.00;;
13868;SDS011;7004;48.206;16.402;2024-03-25T14:23:12;3.00;;;1.80;;
13868;SDS011;7004;48.206;16.402;2024-03-25T14:25:39;2.13;;;1.57;;
13868;SDS011;7004;48.206;16.402;2024-03-25T14:28:06;3.03;;;1.80;;
13868;SDS011;7004;48.206;16.402;2024-03-25T14:30:32;2.97;;;2.20;;
13868;SDS011;7004;48.206;16.402;2024-03-25T14:32:58;2.43;;;1.90;;
13868;SDS011;7004;48.206;16.402;2024-03-25T14:35:25;1.87;;;1.70;;
13868;SDS011;7004;48.206;16.402;2024-03-25T14:37:51;3.47;;;2.10;;
13868;SDS011;7004;48.206;16.402;2024-03-25T14:40:17;2.97;;;1.80;;
13868;SDS011;7004;48.206;16.402;2024-03-25T14:42:43;2.13;;;1.87;;
13868;SDS011;7004;48.206;16.402;2024-03-25T14:45:09;1.90;;;1.70;;
13868;SDS011;7004;48.206;16.402;2024-03-25T14:47:36;5.67;;;1.60;;
13868;SDS011;7004;48.206;16.402;2024-03-25T14:50:02;3.20;;;1.90;;
13868;SDS011;7004;48.206;16.402;2024-03-25T14:52:31;2.60;;;2.00;;
13868;SDS011;7004;48.206;16.402;2024-03-25T14:54:57;1.90;;;1.67;;